createdAt,value
2023-05-05T00:00:13.773Z,2.40
2023-05-05T00:01:13.784Z,2.30
2023-05-05T00:02:13.752Z,2.50
2023-05-05T00:03:13.815Z,2.40
2023-05-05T00:04:13.781Z,2.40
2023-05-05T00:05:13.724Z,2.30
2023-05-05T00:06:13.706Z,2.40
2023-05-05T00:07:13.671Z,2.40
2023-05-05T00:08:13.658Z,2.30
2023-05-05T00:09:13.638Z,2.50
2023-05-05T00:10:13.656Z,2.20
2023-05-05T00:11:13.654Z,2.40
2023-05-05T00:12:13.626Z,2.30
2023-05-05T00:13:13.737Z,2.30
2023-05-05T00:14:13.591Z,2.20
2023-05-05T00:15:13.592Z,2.40
2023-05-05T00:16:13.569Z,2.40
2023-05-05T00:17:13.594Z,2.40
2023-05-05T00:18:13.521Z,2.10
2023-05-05T00:19:13.550Z,2.30
2023-05-05T00:20:13.563Z,2.30
2023-05-05T00:21:13.574Z,2.10
2023-05-05T00:22:13.497Z,2.20
2023-05-05T00:23:13.481Z,2.40
2023-05-05T00:24:13.467Z,2.30
2023-05-05T00:25:13.470Z,2.30
2023-05-05T00:26:13.457Z,2.20
2023-05-05T00:27:13.493Z,2.40
2023-05-05T00:28:13.409Z,2.20
2023-05-05T00:29:13.410Z,2.20
2023-05-05T00:30:13.398Z,2.20
2023-05-05T00:31:13.445Z,2.50
2023-05-05T00:32:13.381Z,2.10
2023-05-05T00:33:13.421Z,2.30
2023-05-05T00:34:13.337Z,2.10
2023-05-05T00:35:13.349Z,2.20
2023-05-05T00:36:13.399Z,2.30
2023-05-05T00:37:13.328Z,2.10
2023-05-05T00:38:13.312Z,2.30
2023-05-05T00:39:13.297Z,2.10
2023-05-05T00:40:13.325Z,2.10
2023-05-05T00:41:13.312Z,2.30
2023-05-05T00:42:13.263Z,2.10
2023-05-05T00:43:13.249Z,2.30
2023-05-05T00:44:13.241Z,2.10
2023-05-05T00:45:13.263Z,2.30
2023-05-05T00:46:13.260Z,2.10
2023-05-05T00:47:13.218Z,2.50
2023-05-05T00:48:13.230Z,2.30
2023-05-05T00:49:13.251Z,2.10
2023-05-05T00:50:13.194Z,2.10
2023-05-05T00:51:13.167Z,2.10
2023-05-05T00:52:13.171Z,2.10
2023-05-05T00:53:13.177Z,2.10
2023-05-05T00:54:13.120Z,2.20
2023-05-05T00:55:13.126Z,2.20
2023-05-05T00:56:13.097Z,2.30
2023-05-05T00:57:13.095Z,2.30
2023-05-05T00:58:13.104Z,2.10
2023-05-05T00:59:13.077Z,2.20
2023-05-05T01:00:13.054Z,2.00
2023-05-05T01:01:13.076Z,2.30
2023-05-05T01:02:13.037Z,2.10
2023-05-05T01:03:14.804Z,2.20
2023-05-05T01:04:13.059Z,2.50
2023-05-05T01:05:13.012Z,2.20
2023-05-05T01:06:12.979Z,2.30
2023-05-05T01:07:13.010Z,2.20
2023-05-05T01:08:12.991Z,2.40
2023-05-05T01:09:12.985Z,2.00
2023-05-05T01:10:19.629Z,2.20
2023-05-05T01:11:13.944Z,2.30
2023-05-05T01:12:12.910Z,2.10
2023-05-05T01:13:13.014Z,2.10
2023-05-05T01:14:12.915Z,2.20
2023-05-05T01:15:12.863Z,2.20
2023-05-05T01:16:12.888Z,1.90
2023-05-05T01:17:12.864Z,2.40
2023-05-05T01:18:12.932Z,2.30
2023-05-05T01:19:12.864Z,2.20
2023-05-05T01:20:12.825Z,2.00
2023-05-05T01:21:12.795Z,2.30
2023-05-05T01:22:12.852Z,2.30
2023-05-05T01:23:12.789Z,2.40
2023-05-05T01:24:12.808Z,2.20
2023-05-05T01:25:12.762Z,2.30
2023-05-05T01:26:12.754Z,2.30
2023-05-05T01:27:12.751Z,2.20
2023-05-05T01:28:12.785Z,2.10
2023-05-05T01:29:12.719Z,2.20
2023-05-05T01:30:12.725Z,2.00
2023-05-05T01:31:12.711Z,2.10
2023-05-05T01:32:12.682Z,2.30
2023-05-05T01:33:12.704Z,2.30
2023-05-05T01:34:12.659Z,2.40
2023-05-05T01:35:12.629Z,2.40
2023-05-05T01:36:12.657Z,2.50
2023-05-05T01:37:12.660Z,2.10
2023-05-05T01:38:12.613Z,2.20
2023-05-05T01:39:12.579Z,2.50
2023-05-05T01:40:12.611Z,2.30
2023-05-05T01:41:12.600Z,2.30
2023-05-05T01:42:12.622Z,2.40
2023-05-05T01:43:12.559Z,2.30
2023-05-05T01:44:12.566Z,2.60
2023-05-05T01:45:12.552Z,2.20
2023-05-05T01:46:12.689Z,2.40
2023-05-05T01:47:12.509Z,2.40
2023-05-05T01:48:12.633Z,2.20
2023-05-05T01:49:12.488Z,2.20
2023-05-05T01:50:12.496Z,2.40
2023-05-05T01:51:12.490Z,2.10
2023-05-05T01:52:12.516Z,2.40
2023-05-05T01:53:12.484Z,2.20
2023-05-05T01:54:12.521Z,2.20
2023-05-05T01:55:12.435Z,2.30
2023-05-05T01:56:12.401Z,2.30
2023-05-05T01:57:12.369Z,2.40
2023-05-05T01:58:12.407Z,2.40
2023-05-05T01:59:12.403Z,2.20
2023-05-05T02:00:12.347Z,2.40
2023-05-05T02:01:12.382Z,2.40
2023-05-05T02:02:12.406Z,2.40
2023-05-05T02:03:12.384Z,2.50
2023-05-05T02:04:12.446Z,2.20
2023-05-05T02:05:12.296Z,2.30
2023-05-05T02:06:12.280Z,2.30
2023-05-05T02:07:12.300Z,2.10
2023-05-05T02:08:12.278Z,2.50
2023-05-05T02:09:12.228Z,2.30
2023-05-05T02:10:12.251Z,2.20
2023-05-05T02:11:12.218Z,2.30
2023-05-05T02:12:12.252Z,2.30
2023-05-05T02:13:12.286Z,2.40
2023-05-05T02:14:12.241Z,2.30
2023-05-05T02:15:12.168Z,2.20
2023-05-05T02:16:12.246Z,2.20
2023-05-05T02:17:12.207Z,2.30
2023-05-05T02:18:12.165Z,2.30
2023-05-05T02:19:12.155Z,2.50
2023-05-05T02:20:12.139Z,2.20
2023-05-05T02:21:12.159Z,2.40
2023-05-05T02:22:12.128Z,2.40
2023-05-05T02:23:12.076Z,2.20
2023-05-05T02:24:12.100Z,2.20
2023-05-05T02:25:12.080Z,2.20
2023-05-05T02:26:12.073Z,2.10
2023-05-05T02:27:12.079Z,2.70
2023-05-05T02:28:12.084Z,2.70
2023-05-05T02:29:12.067Z,2.80
2023-05-05T02:30:12.068Z,2.30
2023-05-05T02:31:12.075Z,2.90
2023-05-05T02:32:11.992Z,2.70
2023-05-05T02:33:11.952Z,2.70
2023-05-05T02:34:12.006Z,2.70
2023-05-05T02:35:11.979Z,2.80
2023-05-05T02:36:11.970Z,2.50
2023-05-05T02:37:11.956Z,2.70
2023-05-05T02:38:11.930Z,2.90
2023-05-05T02:39:11.911Z,2.90
2023-05-05T02:40:11.919Z,2.90
2023-05-05T02:41:11.903Z,3.00
2023-05-05T02:42:11.923Z,3.00
2023-05-05T02:43:11.895Z,3.10
2023-05-05T02:44:11.902Z,3.10
2023-05-05T02:45:11.844Z,2.80
2023-05-05T02:46:11.844Z,3.00
2023-05-05T02:47:11.825Z,3.00
2023-05-05T02:48:11.837Z,3.10
2023-05-05T02:49:11.762Z,2.80
2023-05-05T02:50:11.788Z,3.20
2023-05-05T02:51:11.750Z,3.30
2023-05-05T02:52:11.771Z,3.10
2023-05-05T02:53:11.742Z,3.30
2023-05-05T02:54:11.722Z,3.20
2023-05-05T02:55:11.691Z,3.40
2023-05-05T02:56:11.696Z,3.20
2023-05-05T02:57:11.670Z,3.30
2023-05-05T02:58:11.741Z,3.20
2023-05-05T02:59:12.837Z,3.20
2023-05-05T03:00:11.674Z,3.40
2023-05-05T03:01:11.692Z,3.50
2023-05-05T03:02:11.665Z,3.40
2023-05-05T03:03:11.731Z,3.10
2023-05-05T03:04:11.634Z,3.10
2023-05-05T03:05:11.581Z,3.00
2023-05-05T03:06:11.620Z,3.10
2023-05-05T03:07:11.558Z,3.20
2023-05-05T03:08:11.550Z,3.20
2023-05-05T03:09:11.557Z,3.60
2023-05-05T03:10:11.559Z,3.10
2023-05-05T03:11:11.545Z,3.50
2023-05-05T03:12:11.528Z,3.30
2023-05-05T03:13:11.612Z,3.40
2023-05-05T03:14:11.571Z,3.30
2023-05-05T03:15:11.493Z,3.40
2023-05-05T03:16:11.515Z,3.40
2023-05-05T03:17:11.471Z,3.50
2023-05-05T03:18:11.465Z,3.40
2023-05-05T03:19:11.471Z,3.40
2023-05-05T03:20:11.414Z,3.50
2023-05-05T03:21:11.398Z,3.40
2023-05-05T03:22:11.461Z,3.70
2023-05-05T03:23:11.363Z,3.60
2023-05-05T03:24:11.440Z,3.90
2023-05-05T03:25:11.374Z,3.90
2023-05-05T03:26:11.406Z,3.30
2023-05-05T03:27:11.355Z,3.60
2023-05-05T03:28:11.326Z,4.00
2023-05-05T03:29:11.327Z,3.50
2023-05-05T03:30:11.330Z,3.90
2023-05-05T03:31:11.342Z,4.00
2023-05-05T03:32:11.342Z,4.10
2023-05-05T03:33:11.254Z,4.00
2023-05-05T03:34:11.283Z,4.10
2023-05-05T03:35:11.249Z,4.30
2023-05-05T03:36:11.294Z,4.50
2023-05-05T03:37:11.242Z,4.80
2023-05-05T03:38:11.228Z,4.30
2023-05-05T03:39:11.215Z,4.30
2023-05-05T03:40:11.218Z,4.50
2023-05-05T03:41:11.214Z,4.40
2023-05-05T03:42:11.159Z,4.20
2023-05-05T03:43:11.154Z,4.30
2023-05-05T03:44:11.135Z,4.40
2023-05-05T03:45:11.144Z,4.40
2023-05-05T03:46:11.160Z,4.20
2023-05-05T03:47:11.110Z,4.30
2023-05-05T03:48:11.089Z,4.60
2023-05-05T03:49:11.093Z,4.30
2023-05-05T03:50:11.091Z,4.60
2023-05-05T03:51:11.093Z,4.30
2023-05-05T03:52:12.177Z,4.30
2023-05-05T03:53:11.037Z,4.20
2023-05-05T03:54:11.016Z,4.30
2023-05-05T03:55:11.020Z,4.40
2023-05-05T03:56:11.063Z,4.40
2023-05-05T03:57:10.965Z,4.60
2023-05-05T03:58:10.974Z,4.30
2023-05-05T03:59:10.987Z,4.30
2023-05-05T04:00:10.968Z,4.30
2023-05-05T04:01:10.974Z,4.70
2023-05-05T04:02:10.964Z,4.60
2023-05-05T04:03:11.221Z,4.60
2023-05-05T04:04:10.981Z,4.70
2023-05-05T04:05:10.919Z,4.30
2023-05-05T04:06:10.907Z,4.50
2023-05-05T04:07:10.876Z,4.50
2023-05-05T04:08:10.863Z,4.50
2023-05-05T04:09:10.859Z,4.90
2023-05-05T04:10:10.856Z,4.70
2023-05-05T04:11:10.875Z,4.70
2023-05-05T04:12:10.853Z,4.50
2023-05-05T04:13:11.002Z,4.90
2023-05-05T04:14:10.822Z,5.10
2023-05-05T04:15:10.792Z,5.30
2023-05-05T04:16:10.829Z,5.00
2023-05-05T04:17:10.764Z,5.10
2023-05-05T04:18:10.841Z,5.10
2023-05-05T04:19:10.906Z,4.90
2023-05-05T04:20:10.912Z,4.80
2023-05-05T04:21:10.769Z,5.00
2023-05-05T04:22:10.718Z,5.10
2023-05-05T04:23:10.746Z,5.00
2023-05-05T04:24:10.693Z,4.90
2023-05-05T04:25:10.709Z,5.20
2023-05-05T04:26:10.630Z,5.20
2023-05-05T04:27:10.628Z,5.80
2023-05-05T04:28:10.660Z,5.60
2023-05-05T04:29:10.598Z,5.40
2023-05-05T04:30:10.580Z,5.80
2023-05-05T04:31:10.739Z,6.10
2023-05-05T04:32:10.601Z,6.00
2023-05-05T04:33:10.588Z,6.20
2023-05-05T04:34:10.585Z,6.20
2023-05-05T04:35:10.603Z,6.60
2023-05-05T04:36:10.509Z,6.80
2023-05-05T04:37:10.533Z,7.10
2023-05-05T04:38:10.525Z,6.60
2023-05-05T04:39:10.533Z,6.50
2023-05-05T04:40:10.584Z,7.10
2023-05-05T04:41:10.497Z,5.90
2023-05-05T04:42:10.521Z,6.80
2023-05-05T04:43:10.460Z,6.50
2023-05-05T04:44:10.424Z,6.50
2023-05-05T04:45:10.454Z,6.60
2023-05-05T04:46:10.462Z,6.60
2023-05-05T04:47:12.026Z,6.80
2023-05-05T04:48:10.491Z,7.00
2023-05-05T04:49:10.398Z,7.10
2023-05-05T04:50:10.640Z,7.30
2023-05-05T04:51:10.384Z,7.00
2023-05-05T04:52:10.325Z,7.10
2023-05-05T04:53:10.378Z,7.30
2023-05-05T04:54:10.317Z,7.10
2023-05-05T04:55:10.343Z,7.10
2023-05-05T04:56:10.342Z,7.10
2023-05-05T04:57:10.318Z,7.20
2023-05-05T04:58:10.281Z,7.40
2023-05-05T04:59:10.286Z,7.90
2023-05-05T05:00:10.360Z,7.70
2023-05-05T05:01:10.240Z,7.70
2023-05-05T05:02:10.289Z,7.30
2023-05-05T05:03:10.278Z,7.60
2023-05-05T05:04:10.186Z,7.50
2023-05-05T05:05:10.214Z,7.20
2023-05-05T05:06:10.189Z,7.60
2023-05-05T05:07:10.205Z,7.40
2023-05-05T05:08:10.159Z,8.00
2023-05-05T05:09:10.164Z,8.10
2023-05-05T05:10:10.264Z,8.40
2023-05-05T05:11:10.131Z,7.70
2023-05-05T05:12:10.111Z,7.50
2023-05-05T05:13:12.421Z,7.50
2023-05-05T05:14:10.072Z,7.70
2023-05-05T05:15:10.092Z,7.70
2023-05-05T05:16:10.108Z,8.20
2023-05-05T05:17:10.078Z,8.70
2023-05-05T05:18:10.068Z,8.00
2023-05-05T05:19:10.106Z,7.40
2023-05-05T05:20:10.337Z,7.60
2023-05-05T05:21:10.082Z,8.00
2023-05-05T05:22:10.126Z,7.70
2023-05-05T05:23:10.005Z,7.80
2023-05-05T05:24:09.960Z,8.20
2023-05-05T05:25:09.952Z,8.10
2023-05-05T05:26:09.926Z,7.30
2023-05-05T05:27:10.377Z,7.50
2023-05-05T05:28:11.018Z,7.70
2023-05-05T05:29:09.903Z,7.40
2023-05-05T05:30:10.082Z,10.00
2023-05-05T05:31:09.888Z,9.00
2023-05-05T05:32:10.001Z,7.30
2023-05-05T05:33:09.917Z,7.40
2023-05-05T05:34:12.034Z,7.40
2023-05-05T05:35:09.857Z,7.60
2023-05-05T05:36:09.868Z,7.90
2023-05-05T05:37:09.843Z,7.60
2023-05-05T05:38:09.857Z,8.20
2023-05-05T05:39:09.790Z,7.90
2023-05-05T05:40:09.963Z,8.10
2023-05-05T05:41:09.785Z,7.40
2023-05-05T05:42:09.765Z,7.90
2023-05-05T05:43:09.766Z,7.90
2023-05-05T05:44:09.722Z,7.90
2023-05-05T05:45:09.764Z,8.10
2023-05-05T05:46:09.735Z,8.40
2023-05-05T05:47:09.693Z,8.50
2023-05-05T05:48:09.777Z,8.10
2023-05-05T05:49:09.696Z,7.70
2023-05-05T05:50:09.870Z,8.20
2023-05-05T05:51:24.328Z,7.80
2023-05-05T05:52:09.666Z,7.30
2023-05-05T05:53:09.687Z,8.40
2023-05-05T05:54:09.600Z,7.90
2023-05-05T05:55:09.636Z,7.70
2023-05-05T05:56:09.612Z,8.00
2023-05-05T05:57:09.633Z,7.80
2023-05-05T05:58:09.561Z,7.90
2023-05-05T05:59:09.559Z,7.90
2023-05-05T06:00:09.857Z,7.70
2023-05-05T06:01:09.592Z,7.40
2023-05-05T06:02:09.547Z,7.90
2023-05-05T06:03:09.790Z,7.90
2023-05-05T06:04:09.591Z,8.10
2023-05-05T06:05:09.491Z,8.00
2023-05-05T06:06:09.513Z,7.70
2023-05-05T06:07:09.484Z,7.70
2023-05-05T06:08:09.498Z,8.10
2023-05-05T06:09:09.461Z,8.10
2023-05-05T06:10:25.722Z,7.80
2023-05-05T06:11:10.421Z,8.10
2023-05-05T06:12:09.432Z,7.60
2023-05-05T06:13:09.446Z,8.10
2023-05-05T06:14:09.366Z,8.30
2023-05-05T06:15:09.386Z,7.70
2023-05-05T06:16:09.430Z,8.40
2023-05-05T06:17:09.391Z,7.90
2023-05-05T06:18:09.370Z,8.20
2023-05-05T06:19:09.334Z,8.10
2023-05-05T06:20:09.453Z,7.50
2023-05-05T06:21:09.305Z,7.80
2023-05-05T06:22:09.395Z,8.00
2023-05-05T06:23:09.275Z,7.90
2023-05-05T06:24:09.295Z,7.70
2023-05-05T06:25:09.261Z,8.30
2023-05-05T06:26:09.259Z,7.80
2023-05-05T06:27:09.217Z,7.90
2023-05-05T06:28:09.202Z,8.30
2023-05-05T06:29:10.508Z,7.90
2023-05-05T06:30:09.522Z,8.80
2023-05-05T06:31:09.260Z,9.50
2023-05-05T06:32:09.205Z,8.80
2023-05-05T06:33:09.216Z,10.40
2023-05-05T06:34:09.159Z,9.60
2023-05-05T06:35:09.158Z,8.30
2023-05-05T06:36:09.189Z,8.30
2023-05-05T06:37:36.794Z,8.00
2023-05-05T06:38:09.120Z,7.80
2023-05-05T06:39:09.091Z,8.10
2023-05-05T06:40:09.377Z,7.80
2023-05-05T06:41:09.077Z,8.20
2023-05-05T06:42:09.047Z,8.30
2023-05-05T06:43:09.057Z,8.20
2023-05-05T06:44:09.038Z,9.20
2023-05-05T06:45:09.104Z,8.50
2023-05-05T06:46:08.993Z,7.50
2023-05-05T06:47:09.026Z,7.60
2023-05-05T06:48:09.064Z,7.60
2023-05-05T06:49:08.990Z,7.70
2023-05-05T06:50:09.431Z,8.40
2023-05-05T06:51:08.936Z,7.80
2023-05-05T06:52:08.928Z,7.10
2023-05-05T06:53:08.968Z,7.30
2023-05-05T06:54:08.921Z,7.70
2023-05-05T06:55:08.912Z,7.60
2023-05-05T06:56:08.901Z,8.00
2023-05-05T06:57:08.872Z,8.00
2023-05-05T06:58:08.901Z,7.20
2023-05-05T06:59:08.855Z,7.30
2023-05-05T07:00:09.010Z,7.40
2023-05-05T07:01:08.870Z,7.60
2023-05-05T07:02:08.844Z,7.30
2023-05-05T07:03:08.816Z,7.30
2023-05-05T07:04:08.859Z,7.20
2023-05-05T07:05:08.838Z,7.40
2023-05-05T07:06:08.772Z,7.30
2023-05-05T07:07:08.780Z,7.20
2023-05-05T07:08:08.740Z,7.40
2023-05-05T07:09:08.747Z,7.30
2023-05-05T07:10:08.971Z,7.30
2023-05-05T07:11:08.745Z,6.90
2023-05-05T07:12:08.911Z,6.80
2023-05-05T07:13:08.770Z,7.30
2023-05-05T07:14:08.682Z,6.80
2023-05-05T07:15:23.357Z,6.80
2023-05-05T07:16:09.735Z,7.30
2023-05-05T07:17:08.656Z,6.90
2023-05-05T07:18:08.690Z,6.70
2023-05-05T07:19:08.607Z,6.70
2023-05-05T07:20:09.021Z,6.60
2023-05-05T07:21:08.601Z,6.50
2023-05-05T07:22:08.588Z,6.70
2023-05-05T07:23:08.604Z,6.40
2023-05-05T07:24:08.572Z,6.40
2023-05-05T07:25:08.570Z,6.40
2023-05-05T07:26:08.561Z,6.20
2023-05-05T07:27:08.545Z,6.50
2023-05-05T07:28:08.520Z,6.80
2023-05-05T07:29:08.635Z,6.50
2023-05-05T07:30:12.409Z,6.10
2023-05-05T07:31:09.503Z,6.10
2023-05-05T07:32:08.470Z,5.90
2023-05-05T07:33:08.542Z,6.10
2023-05-05T07:34:08.470Z,5.70
2023-05-05T07:35:08.444Z,5.80
2023-05-05T07:36:08.469Z,5.80
2023-05-05T07:37:08.408Z,5.60
2023-05-05T07:38:09.469Z,5.20
2023-05-05T07:39:08.402Z,5.40
2023-05-05T07:40:08.665Z,4.80
2023-05-05T07:41:08.383Z,5.10
2023-05-05T07:42:08.350Z,4.90
2023-05-05T07:43:08.358Z,5.00
2023-05-05T07:44:08.389Z,5.10
2023-05-05T07:45:08.440Z,5.40
2023-05-05T07:46:08.365Z,5.30
2023-05-05T07:47:08.273Z,4.90
2023-05-05T07:48:08.300Z,5.00
2023-05-05T07:49:08.316Z,4.90
2023-05-05T07:50:08.714Z,4.90
2023-05-05T07:51:08.279Z,4.60
2023-05-05T07:52:08.242Z,5.00
2023-05-05T07:53:14.340Z,5.20
2023-05-05T07:54:09.284Z,4.80
2023-05-05T07:55:08.185Z,4.90
2023-05-05T07:56:08.185Z,5.30
2023-05-05T07:57:08.204Z,5.20
2023-05-05T07:58:08.171Z,5.20
2023-05-05T07:59:08.170Z,5.10
2023-05-05T08:00:08.465Z,5.00
2023-05-05T08:01:08.142Z,4.90
2023-05-05T08:02:08.173Z,5.20
2023-05-05T08:03:11.273Z,5.30
2023-05-05T08:04:08.158Z,5.50
2023-05-05T08:05:08.431Z,5.40
2023-05-05T08:06:08.112Z,5.30
2023-05-05T08:07:08.091Z,5.20
2023-05-05T08:08:08.055Z,5.10
2023-05-05T08:09:08.026Z,5.10
2023-05-05T08:10:08.064Z,5.30
2023-05-05T08:11:08.049Z,5.00
2023-05-05T08:12:08.014Z,5.00
2023-05-05T08:13:08.006Z,4.90
2023-05-05T08:14:07.997Z,4.60
2023-05-05T08:15:08.380Z,5.10
2023-05-05T08:16:08.020Z,4.70
2023-05-05T08:17:07.967Z,5.00
2023-05-05T08:18:07.985Z,4.60
2023-05-05T08:19:14.835Z,5.00
2023-05-05T08:20:08.936Z,5.70
2023-05-05T08:21:07.995Z,4.60
2023-05-05T08:22:07.921Z,4.70
2023-05-05T08:23:07.892Z,4.80
2023-05-05T08:24:07.888Z,5.10
2023-05-05T08:25:08.095Z,4.60
2023-05-05T08:26:07.847Z,7.00
2023-05-05T08:27:07.846Z,5.50
2023-05-05T08:28:07.827Z,4.80
2023-05-05T08:29:07.823Z,4.60
2023-05-05T08:30:07.837Z,4.30
2023-05-05T08:31:07.821Z,6.60
2023-05-05T08:32:07.808Z,5.00
2023-05-05T08:33:07.840Z,4.40
2023-05-05T08:34:07.772Z,4.20
2023-05-05T08:35:08.218Z,4.10
2023-05-05T08:36:07.776Z,4.60
2023-05-05T08:37:07.816Z,4.20
2023-05-05T08:38:07.742Z,3.80
2023-05-05T08:39:07.695Z,4.20
2023-05-05T08:40:07.720Z,4.10
2023-05-05T08:41:07.703Z,4.20
2023-05-05T08:42:07.679Z,3.80
2023-05-05T08:43:07.680Z,3.20
2023-05-05T08:44:07.661Z,3.20
2023-05-05T08:45:08.181Z,3.60
2023-05-05T08:46:07.640Z,4.70
2023-05-05T08:47:07.671Z,3.40
2023-05-05T08:48:07.636Z,3.50
2023-05-05T08:49:07.604Z,3.60
2023-05-05T08:50:07.599Z,3.10
2023-05-05T08:51:07.562Z,3.10
2023-05-05T08:52:07.555Z,3.00
2023-05-05T08:53:07.560Z,3.00
2023-05-05T08:54:07.579Z,2.80
2023-05-05T08:55:07.783Z,3.70
2023-05-05T08:56:07.528Z,3.20
2023-05-05T08:57:07.492Z,2.90
2023-05-05T08:58:07.469Z,3.10
2023-05-05T08:59:07.496Z,3.80
2023-05-05T09:00:07.440Z,3.10
2023-05-05T09:01:07.506Z,3.60
2023-05-05T09:02:07.446Z,3.50
2023-05-05T09:03:07.533Z,4.20
2023-05-05T09:04:07.446Z,3.50
2023-05-05T09:05:07.579Z,3.20
2023-05-05T09:06:07.414Z,3.20
2023-05-05T09:07:07.505Z,3.40
2023-05-05T09:08:07.375Z,3.60
2023-05-05T09:09:07.376Z,3.40
2023-05-05T09:10:07.348Z,3.30
2023-05-05T09:11:07.350Z,3.60
2023-05-05T09:12:07.345Z,3.60
2023-05-05T09:13:07.354Z,3.10
2023-05-05T09:14:07.292Z,3.10
2023-05-05T09:15:07.525Z,2.90
2023-05-05T09:16:07.284Z,2.90
2023-05-05T09:17:07.385Z,3.00
2023-05-05T09:18:07.299Z,3.10
2023-05-05T09:19:07.232Z,3.40
2023-05-05T09:20:07.339Z,3.20
2023-05-05T09:21:07.210Z,3.60
2023-05-05T09:22:07.181Z,4.30
2023-05-05T09:23:07.207Z,3.50
2023-05-05T09:24:09.127Z,3.20
2023-05-05T09:25:07.422Z,3.50
2023-05-05T09:26:07.281Z,3.80
2023-05-05T09:27:07.136Z,3.90
2023-05-05T09:28:07.164Z,3.90
2023-05-05T09:29:07.121Z,3.90
2023-05-05T09:30:07.116Z,3.50
2023-05-05T09:31:07.294Z,3.70
2023-05-05T09:32:07.102Z,3.60
2023-05-05T09:33:07.133Z,3.70
2023-05-05T09:34:07.062Z,3.60
2023-05-05T09:35:07.240Z,3.80
2023-05-05T09:36:07.047Z,3.30
2023-05-05T09:37:07.218Z,3.60
2023-05-05T09:38:07.026Z,3.10
2023-05-05T09:39:06.999Z,3.80
2023-05-05T09:40:07.037Z,4.00
2023-05-05T09:41:07.000Z,3.40
2023-05-05T09:42:06.986Z,3.10
2023-05-05T09:43:06.976Z,3.10
2023-05-05T09:44:06.961Z,3.10
2023-05-05T09:45:07.113Z,2.60
2023-05-05T09:46:06.979Z,2.90
2023-05-05T09:47:18.194Z,2.70
2023-05-05T09:48:07.962Z,3.20
2023-05-05T09:49:06.937Z,3.20
2023-05-05T09:50:07.249Z,2.90
2023-05-05T09:51:06.887Z,2.90
2023-05-05T09:52:06.853Z,2.90
2023-05-05T09:53:06.873Z,3.00
2023-05-05T09:54:06.859Z,2.80
2023-05-05T09:55:06.844Z,2.50
2023-05-05T09:56:06.803Z,2.20
2023-05-05T09:57:06.863Z,2.20
2023-05-05T09:58:06.801Z,2.20
2023-05-05T09:59:06.780Z,2.30
2023-05-05T10:00:07.004Z,2.30
2023-05-05T10:01:06.809Z,2.20
2023-05-05T10:02:06.799Z,2.50
2023-05-05T10:03:06.834Z,2.20
2023-05-05T10:04:06.692Z,2.10
2023-05-05T10:05:06.793Z,2.30
2023-05-05T10:06:06.681Z,2.00
2023-05-05T10:07:06.746Z,2.30
2023-05-05T10:08:06.655Z,2.20
2023-05-05T10:09:06.669Z,2.20
2023-05-05T10:10:06.817Z,2.50
2023-05-05T10:11:06.697Z,4.60
2023-05-05T10:12:06.641Z,2.10
2023-05-05T10:13:06.651Z,1.80
2023-05-05T10:14:06.595Z,2.00
2023-05-05T10:15:06.624Z,2.20
2023-05-05T10:16:06.638Z,2.50
2023-05-05T10:17:06.582Z,2.40
2023-05-05T10:18:08.202Z,2.50
2023-05-05T10:19:06.561Z,2.60
2023-05-05T10:20:06.759Z,2.60
2023-05-05T10:21:06.562Z,2.70
2023-05-05T10:22:06.522Z,2.80
2023-05-05T10:23:06.502Z,2.70
2023-05-05T10:24:06.491Z,2.80
2023-05-05T10:25:06.475Z,2.70
2023-05-05T10:26:06.502Z,2.50
2023-05-05T10:27:06.482Z,2.60
2023-05-05T10:28:06.449Z,3.00
2023-05-05T10:29:06.452Z,2.80
2023-05-05T10:30:06.577Z,2.60
2023-05-05T10:31:16.420Z,2.50
2023-05-05T10:32:27.194Z,2.90
2023-05-05T10:33:27.286Z,3.10
2023-05-05T10:34:07.472Z,2.90
2023-05-05T10:35:06.395Z,3.00
2023-05-05T10:36:06.369Z,3.50
2023-05-05T10:37:06.417Z,3.20
2023-05-05T10:38:06.313Z,3.20
2023-05-05T10:39:06.323Z,3.20
2023-05-05T10:40:06.408Z,3.20
2023-05-05T10:41:06.324Z,3.20
2023-05-05T10:42:06.317Z,3.60
2023-05-05T10:43:06.305Z,3.90
2023-05-05T10:44:06.248Z,3.40
2023-05-05T10:45:06.304Z,3.20
2023-05-05T10:46:06.244Z,3.10
2023-05-05T10:47:06.253Z,3.10
2023-05-05T10:48:06.350Z,3.10
2023-05-05T10:49:06.199Z,3.30
2023-05-05T10:50:06.388Z,3.40
2023-05-05T10:51:06.206Z,3.50
2023-05-05T10:52:06.156Z,3.30
2023-05-05T10:53:06.352Z,3.60
2023-05-05T10:54:06.239Z,3.20
2023-05-05T10:55:06.346Z,3.40
2023-05-05T10:56:06.103Z,3.70
2023-05-05T10:57:06.432Z,3.70
2023-05-05T10:58:06.085Z,3.40
2023-05-05T10:59:06.092Z,3.70
2023-05-05T11:00:06.248Z,3.60
2023-05-05T11:01:06.149Z,3.40
2023-05-05T11:02:06.038Z,3.20
2023-05-05T11:03:06.188Z,2.90
2023-05-05T11:04:06.101Z,3.20
2023-05-05T11:05:06.017Z,2.70
2023-05-05T11:06:06.084Z,11.80
2023-05-05T11:07:06.062Z,3.80
2023-05-05T11:08:05.995Z,3.40
2023-05-05T11:09:06.001Z,3.40
2023-05-05T11:10:06.238Z,3.30
2023-05-05T11:11:06.007Z,3.10
2023-05-05T11:12:05.928Z,2.90
2023-05-05T11:13:06.001Z,2.90
2023-05-05T11:14:05.945Z,3.10
2023-05-05T11:15:05.947Z,3.00
2023-05-05T11:16:05.926Z,2.70
2023-05-05T11:17:05.878Z,2.80
2023-05-05T11:18:07.746Z,3.00
2023-05-05T11:19:05.879Z,2.80
2023-05-05T11:20:06.118Z,2.80
2023-05-05T11:21:05.829Z,2.80
2023-05-05T11:22:05.834Z,2.60
2023-05-05T11:23:05.869Z,2.80
2023-05-05T11:24:05.778Z,2.90
2023-05-05T11:25:05.818Z,2.80
2023-05-05T11:26:05.912Z,2.40
2023-05-05T11:27:05.756Z,3.00
2023-05-05T11:28:05.749Z,2.50
2023-05-05T11:31:56.431Z,2.70
2023-05-05T11:32:27.799Z,2.80
2023-05-05T11:33:27.732Z,2.80
2023-05-05T11:34:27.739Z,2.90
2023-05-05T11:35:27.740Z,3.00
2023-05-05T11:36:27.715Z,2.50
2023-05-05T11:37:27.695Z,2.50
2023-05-05T11:38:29.413Z,2.50
2023-05-05T11:39:27.692Z,2.60
2023-05-05T11:40:27.662Z,2.50
2023-05-05T11:41:27.665Z,2.40
2023-05-05T11:42:27.649Z,2.30
2023-05-05T11:43:27.650Z,2.20
2023-05-05T11:44:27.634Z,2.60
2023-05-05T11:45:27.645Z,2.20
2023-05-05T11:46:27.637Z,2.40
2023-05-05T11:47:27.596Z,2.20
2023-05-05T11:48:27.593Z,2.30
2023-05-05T11:49:27.581Z,2.20
2023-05-05T11:50:27.552Z,2.30
2023-05-05T11:51:27.532Z,2.40
2023-05-05T11:52:27.534Z,2.70
2023-05-05T11:53:27.532Z,2.40
2023-05-05T11:54:27.525Z,2.20
2023-05-05T11:55:27.477Z,2.30
2023-05-05T11:56:27.534Z,3.10
2023-05-05T11:57:27.449Z,2.30
2023-05-05T11:58:27.462Z,2.40
2023-05-05T11:59:27.462Z,2.50
2023-05-05T12:00:27.500Z,2.20
2023-05-05T12:01:27.406Z,2.50
2023-05-05T12:02:27.484Z,2.80
2023-05-05T12:03:27.633Z,3.00
2023-05-05T12:04:27.433Z,2.40
2023-05-05T12:05:27.369Z,2.40
2023-05-05T12:06:27.400Z,2.90
2023-05-05T12:07:27.447Z,2.60
2023-05-05T12:08:27.335Z,2.70
2023-05-05T12:09:27.372Z,2.20
2023-05-05T12:10:27.326Z,2.40
2023-05-05T12:11:27.302Z,2.40
2023-05-05T12:12:27.337Z,2.20
2023-05-05T12:13:27.426Z,2.50
2023-05-05T12:14:27.282Z,2.30
2023-05-05T12:15:27.280Z,2.60
2023-05-05T12:16:27.343Z,2.90
2023-05-05T12:17:27.257Z,2.70
2023-05-05T12:18:27.285Z,2.80
2023-05-05T12:19:27.248Z,2.80
2023-05-05T12:20:27.231Z,2.90
2023-05-05T12:21:27.177Z,2.70
2023-05-05T12:22:27.211Z,2.80
2023-05-05T12:23:27.169Z,2.60
2023-05-05T12:24:27.200Z,2.50
2023-05-05T12:25:27.182Z,2.70
2023-05-05T12:26:27.146Z,2.30
2023-05-05T12:27:27.171Z,2.40
2023-05-05T12:28:27.131Z,3.00
2023-05-05T12:29:27.131Z,2.30
2023-05-05T12:30:27.159Z,2.50
2023-05-05T12:31:27.157Z,2.70
2023-05-05T12:32:27.100Z,2.70
2023-05-05T12:33:27.066Z,3.50
2023-05-05T12:34:27.033Z,3.00
2023-05-05T12:35:27.104Z,2.20
2023-05-05T12:36:28.155Z,1.90
2023-05-05T12:37:27.023Z,2.80
2023-05-05T12:38:27.020Z,1.50
2023-05-05T12:39:27.010Z,1.30
2023-05-05T12:40:26.998Z,1.20
2023-05-05T12:41:26.976Z,1.10
2023-05-05T12:42:26.971Z,1.30
2023-05-05T12:43:27.144Z,0.90
2023-05-05T12:44:26.932Z,1.10
2023-05-05T12:45:26.987Z,1.10
2023-05-05T12:46:26.935Z,1.40
2023-05-05T12:47:26.945Z,1.20
2023-05-05T12:48:26.880Z,1.30
2023-05-05T12:49:26.910Z,1.50
2023-05-05T12:50:26.929Z,1.60
2023-05-05T12:51:26.885Z,1.80
2023-05-05T12:52:26.873Z,1.90
2023-05-05T12:53:26.856Z,2.20
2023-05-05T12:54:26.801Z,3.10
2023-05-05T12:55:26.832Z,3.20
2023-05-05T12:56:26.822Z,2.30
2023-05-05T12:57:26.784Z,2.50
2023-05-05T12:58:26.761Z,2.20
2023-05-05T12:59:26.811Z,2.10
2023-05-05T13:00:26.776Z,2.30
2023-05-05T13:01:26.781Z,2.20
2023-05-05T13:02:26.799Z,2.30
2023-05-05T13:03:26.955Z,2.10
2023-05-05T13:04:26.696Z,2.50
2023-05-05T13:05:26.743Z,2.50
2023-05-05T13:06:26.669Z,1.70
2023-05-05T13:07:26.691Z,2.10
2023-05-05T13:08:26.651Z,2.20
2023-05-05T13:09:26.706Z,2.00
2023-05-05T13:10:26.654Z,2.00
2023-05-05T13:11:26.647Z,1.90
2023-05-05T13:12:26.644Z,1.60
2023-05-05T13:13:26.643Z,1.60
2023-05-05T13:14:26.590Z,1.80
2023-05-05T13:15:26.599Z,1.60
2023-05-05T13:16:26.632Z,1.60
2023-05-05T13:17:26.585Z,1.40
2023-05-05T13:18:26.529Z,1.60
2023-05-05T13:19:26.574Z,1.50
2023-05-05T13:20:26.508Z,1.50